createdAt,value
2019-03-08T00:00:46.213Z,60.92
2019-03-08T00:03:16.619Z,27.27
2019-03-08T00:05:45.450Z,8.68
2019-03-08T00:08:14.058Z,9.28
2019-03-08T00:10:42.770Z,10.53
2019-03-08T00:13:11.599Z,8.98
2019-03-08T00:15:40.659Z,7.78
2019-03-08T00:18:09.486Z,6.17
2019-03-08T00:20:38.406Z,8.73
2019-03-08T00:23:07.096Z,9.33
2019-03-08T00:25:35.745Z,11.30
2019-03-08T00:28:04.627Z,11.05
2019-03-08T00:30:33.834Z,12.50
2019-03-08T00:33:02.677Z,16.93
2019-03-08T00:35:31.506Z,17.57
2019-03-08T00:38:00.159Z,14.80
2019-03-08T00:40:28.875Z,9.08
2019-03-08T00:42:57.849Z,8.85
2019-03-08T00:45:26.545Z,8.48
2019-03-08T00:47:55.516Z,9.68
2019-03-08T00:50:24.098Z,7.25
2019-03-08T00:52:52.915Z,9.98
2019-03-08T00:55:21.698Z,9.50
2019-03-08T00:57:50.375Z,13.28
2019-03-08T01:00:20.246Z,11.38
2019-03-08T01:02:49.185Z,8.53
2019-03-08T01:05:17.986Z,11.12
2019-03-08T01:07:46.826Z,13.40
2019-03-08T01:10:17.336Z,12.00
2019-03-08T01:12:46.092Z,12.25
2019-03-08T01:15:16.140Z,10.35
2019-03-08T01:17:44.778Z,10.72
2019-03-08T01:20:14.956Z,11.70
2019-03-08T01:22:43.866Z,10.18
2019-03-08T01:25:13.095Z,11.78
2019-03-08T01:27:57.875Z,15.18
2019-03-08T01:30:27.686Z,12.05
2019-03-08T01:32:56.659Z,7.97
2019-03-08T01:35:25.632Z,8.68
2019-03-08T01:37:56.337Z,11.20
2019-03-08T01:40:25.176Z,8.53
2019-03-08T01:42:54.050Z,17.42
2019-03-08T01:45:25.711Z,8.33
2019-03-08T01:47:54.854Z,10.95
2019-03-08T01:50:23.938Z,11.03
2019-03-08T01:52:52.596Z,8.05
2019-03-08T01:55:21.294Z,8.48
2019-03-08T01:57:50.444Z,8.30
2019-03-08T02:00:22.037Z,9.40
2019-03-08T02:02:51.880Z,9.25
2019-03-08T02:05:21.364Z,9.43
2019-03-08T02:07:50.230Z,8.55
2019-03-08T02:10:19.987Z,10.50
2019-03-08T02:12:48.755Z,8.15
2019-03-08T02:15:18.292Z,8.55
2019-03-08T02:17:47.184Z,7.97
2019-03-08T02:20:18.593Z,11.30
2019-03-08T02:22:47.276Z,13.18
2019-03-08T02:25:16.316Z,17.50
2019-03-08T02:27:45.256Z,13.83
2019-03-08T02:30:14.965Z,20.43
2019-03-08T02:32:44.789Z,15.72
2019-03-08T02:35:14.234Z,15.63
2019-03-08T02:37:42.898Z,11.60
2019-03-08T02:40:29.435Z,16.37
2019-03-08T02:42:58.572Z,8.90
2019-03-08T02:45:28.525Z,12.60
2019-03-08T02:47:57.538Z,9.03
2019-03-08T02:50:26.517Z,10.93
2019-03-08T02:52:55.537Z,11.22
2019-03-08T02:55:24.389Z,13.78
2019-03-08T02:57:53.709Z,11.85
2019-03-08T03:00:22.379Z,18.92
2019-03-08T03:02:50.968Z,10.15
2019-03-08T03:05:19.699Z,12.47
2019-03-08T03:07:48.535Z,14.95
2019-03-08T03:10:17.231Z,12.07
2019-03-08T03:12:46.196Z,29.92
2019-03-08T03:15:15.097Z,15.13
2019-03-08T03:17:43.977Z,12.33
2019-03-08T03:20:13.215Z,15.48
2019-03-08T03:22:41.752Z,11.63
2019-03-08T03:25:12.327Z,10.98
2019-03-08T03:27:41.187Z,7.50
2019-03-08T03:30:11.513Z,9.23
2019-03-08T03:32:40.405Z,14.85
2019-03-08T03:35:09.136Z,14.18
2019-03-08T03:37:38.100Z,14.90
2019-03-08T03:40:09.937Z,7.47
2019-03-08T03:42:40.006Z,17.30
2019-03-08T03:45:11.621Z,6.80
2019-03-08T03:47:40.279Z,8.83
2019-03-08T03:50:10.214Z,10.08
2019-03-08T03:52:42.109Z,10.60
2019-03-08T03:55:12.472Z,7.78
2019-03-08T03:57:41.576Z,10.25
2019-03-08T04:00:11.870Z,8.95
2019-03-08T04:02:40.763Z,6.10
2019-03-08T04:05:11.413Z,7.42
2019-03-08T04:07:40.257Z,8.95
2019-03-08T04:10:10.840Z,5.87
2019-03-08T04:12:39.698Z,6.22
2019-03-08T04:15:09.941Z,5.15
2019-03-08T04:17:38.877Z,6.20
2019-03-08T04:20:09.258Z,6.20
2019-03-08T04:22:38.318Z,3.90
2019-03-08T04:25:07.582Z,7.00
2019-03-08T04:27:36.722Z,6.20
2019-03-08T04:30:07.028Z,5.62
2019-03-08T04:32:36.186Z,5.83
2019-03-08T04:35:05.653Z,4.67
2019-03-08T04:37:34.517Z,6.05
2019-03-08T04:40:04.400Z,6.83
2019-03-08T04:42:33.506Z,5.65
2019-03-08T04:45:02.339Z,7.22
2019-03-08T04:47:31.428Z,4.90
2019-03-08T04:50:00.171Z,4.10
2019-03-08T04:52:29.142Z,4.42
2019-03-08T04:54:58.158Z,5.10
2019-03-08T04:57:27.426Z,6.30
2019-03-08T04:59:57.438Z,5.10
2019-03-08T05:02:26.530Z,6.83
2019-03-08T05:04:55.332Z,5.25
2019-03-08T05:07:24.049Z,5.87
2019-03-08T05:09:52.979Z,5.60
2019-03-08T05:12:21.609Z,4.22
2019-03-08T05:14:50.328Z,6.12
2019-03-08T05:17:18.871Z,4.47
2019-03-08T05:19:47.597Z,9.48
2019-03-08T05:22:16.615Z,5.85
2019-03-08T05:24:45.236Z,7.53
2019-03-08T05:27:14.150Z,5.92
2019-03-08T05:29:42.843Z,5.60
2019-03-08T05:32:11.586Z,4.87
2019-03-08T05:34:40.418Z,5.17
2019-03-08T05:37:09.231Z,5.92
2019-03-08T05:39:38.040Z,5.45
2019-03-08T05:42:06.978Z,5.42
2019-03-08T05:44:35.757Z,5.35
2019-03-08T05:47:04.796Z,6.72
2019-03-08T05:49:33.640Z,4.87
2019-03-08T05:52:02.623Z,7.20
2019-03-08T05:54:31.390Z,8.55
2019-03-08T05:57:00.439Z,7.60
2019-03-08T05:59:29.170Z,5.25
2019-03-08T06:01:58.217Z,6.20
2019-03-08T06:04:27.151Z,7.05
2019-03-08T06:06:55.964Z,7.62
2019-03-08T06:09:25.830Z,6.67
2019-03-08T06:11:54.960Z,9.73
2019-03-08T06:14:24.243Z,6.45
2019-03-08T06:16:52.953Z,6.90
2019-03-08T06:19:21.769Z,7.53
2019-03-08T06:21:50.678Z,5.97
2019-03-08T06:24:19.618Z,9.03
2019-03-08T06:26:48.460Z,5.62
2019-03-08T06:29:18.214Z,6.33
2019-03-08T06:31:47.268Z,4.22
2019-03-08T06:34:16.025Z,30.52
2019-03-08T06:36:45.693Z,9.05
2019-03-08T06:39:14.580Z,6.83
2019-03-08T06:41:43.713Z,16.65
2019-03-08T06:44:12.354Z,7.50
2019-03-08T06:46:41.550Z,7.70
2019-03-08T06:49:10.230Z,8.58
2019-03-08T06:51:39.381Z,12.23
2019-03-08T06:54:08.013Z,11.90
2019-03-08T06:56:36.946Z,6.85
2019-03-08T06:59:19.539Z,6.00
2019-03-08T07:04:16.674Z,6.95
2019-03-08T07:06:45.704Z,5.53
2019-03-08T07:09:14.504Z,4.25
2019-03-08T07:11:43.170Z,3.95
2019-03-08T07:14:11.960Z,7.35
2019-03-08T07:16:40.829Z,6.50
2019-03-08T07:19:09.785Z,5.03
2019-03-08T07:21:40.337Z,5.85
2019-03-08T07:24:13.589Z,7.80
2019-03-08T07:26:52.727Z,10.03
2019-03-08T07:29:23.402Z,11.00
2019-03-08T07:31:59.536Z,4.67
2019-03-08T07:34:36.026Z,6.15
2019-03-08T07:37:19.613Z,8.33
2019-03-08T07:39:50.038Z,12.60
2019-03-08T07:42:38.107Z,8.20
2019-03-08T07:45:23.920Z,15.15
2019-03-08T07:48:13.039Z,12.30
2019-03-08T07:51:00.127Z,17.55
2019-03-08T07:53:36.549Z,14.03
2019-03-08T07:56:12.999Z,7.90
2019-03-08T07:59:00.181Z,11.28
2019-03-08T08:01:30.908Z,23.62
2019-03-08T08:04:01.787Z,8.35
2019-03-08T08:06:32.429Z,11.75
2019-03-08T08:09:06.409Z,15.33
2019-03-08T08:11:53.026Z,10.25
2019-03-08T08:14:39.988Z,12.75
2019-03-08T08:17:13.420Z,15.38
2019-03-08T08:19:46.817Z,5.92
2019-03-08T08:22:29.487Z,8.90
2019-03-08T08:25:08.836Z,8.33
2019-03-08T08:27:45.311Z,16.07
2019-03-08T08:30:16.264Z,13.38
2019-03-08T08:33:03.328Z,11.90
2019-03-08T08:35:36.117Z,8.60
2019-03-08T08:38:23.646Z,16.12
2019-03-08T08:41:10.136Z,9.48
2019-03-08T08:43:55.620Z,12.37
2019-03-08T08:46:25.926Z,18.15
2019-03-08T08:49:14.728Z,13.15
2019-03-08T08:51:47.637Z,12.28
2019-03-08T08:54:35.479Z,9.08
2019-03-08T08:57:05.811Z,18.32
2019-03-08T08:59:52.810Z,14.70
2019-03-08T09:02:23.401Z,9.23
2019-03-08T09:05:02.980Z,11.78
2019-03-08T09:07:48.598Z,9.55
2019-03-08T09:10:31.044Z,11.08
2019-03-08T09:13:01.879Z,13.98
2019-03-08T09:15:32.602Z,16.87
2019-03-08T09:18:12.057Z,13.20
2019-03-08T09:20:48.678Z,8.83
2019-03-08T09:23:34.359Z,7.22
2019-03-08T09:26:07.670Z,7.90
2019-03-08T09:28:38.079Z,11.53
2019-03-08T09:31:08.747Z,24.07
2019-03-08T09:33:54.220Z,10.53
2019-03-08T09:36:24.580Z,11.78
2019-03-08T09:39:04.842Z,10.78
2019-03-08T09:41:38.976Z,17.00
2019-03-08T09:44:09.388Z,9.63
2019-03-08T09:46:42.742Z,7.80
2019-03-08T09:49:22.617Z,11.10
2019-03-08T09:51:53.425Z,12.78
2019-03-08T09:54:26.877Z,33.90
2019-03-08T09:57:06.889Z,10.78
2019-03-08T09:59:40.380Z,36.25
2019-03-08T10:02:29.116Z,46.25
2019-03-08T10:05:05.047Z,15.98
2019-03-08T10:07:38.207Z,10.43
2019-03-08T10:10:15.879Z,21.85
2019-03-08T10:12:46.717Z,5.72
2019-03-08T10:15:32.284Z,10.15
2019-03-08T10:18:19.034Z,10.00
2019-03-08T10:21:02.780Z,10.05
2019-03-08T10:26:11.407Z,9.90
2019-03-08T10:28:42.217Z,8.23
2019-03-08T10:31:12.539Z,6.92
2019-03-08T10:33:49.028Z,15.93
2019-03-08T10:36:31.048Z,7.28
2019-03-08T10:39:07.432Z,6.15
2019-03-08T10:41:38.708Z,7.55
2019-03-08T10:44:25.479Z,28.45
2019-03-08T10:46:58.898Z,13.53
2019-03-08T10:49:29.549Z,18.25
2019-03-08T10:52:17.533Z,5.33
2019-03-08T10:54:47.337Z,7.92
2019-03-08T10:57:17.867Z,8.18
2019-03-08T10:59:49.801Z,11.97
2019-03-08T11:02:26.877Z,7.10
2019-03-08T11:05:15.351Z,6.53
2019-03-08T11:07:57.536Z,8.48
2019-03-08T11:10:43.241Z,9.38
2019-03-08T11:13:14.449Z,3.20
2019-03-08T11:15:51.002Z,5.08
2019-03-08T11:18:21.493Z,5.37
2019-03-08T11:20:54.578Z,3.77
2019-03-08T11:23:36.888Z,4.70
2019-03-08T11:26:19.198Z,10.55
2019-03-08T11:28:55.388Z,6.08
2019-03-08T11:31:28.729Z,5.53
2019-03-08T11:34:11.156Z,3.90
2019-03-08T11:36:58.502Z,3.62
2019-03-08T11:39:36.220Z,4.08
2019-03-08T11:42:09.691Z,4.45
2019-03-08T11:44:55.636Z,6.78
2019-03-08T11:47:42.647Z,12.90
2019-03-08T11:50:13.088Z,6.40
2019-03-08T11:52:49.583Z,4.67
2019-03-08T11:55:20.070Z,3.87
2019-03-08T11:57:56.587Z,4.28
2019-03-08T12:00:29.815Z,4.75
2019-03-08T12:03:00.409Z,5.85
2019-03-08T12:05:32.145Z,6.17
2019-03-08T12:08:06.459Z,3.52
2019-03-08T12:10:53.174Z,3.15
2019-03-08T12:13:35.593Z,5.70
2019-03-08T12:16:06.139Z,4.15
2019-03-08T12:18:39.573Z,7.05
2019-03-08T12:21:10.342Z,5.20
2019-03-08T12:23:40.868Z,20.70
2019-03-08T12:26:11.433Z,5.10
2019-03-08T12:28:50.858Z,4.08
2019-03-08T12:31:36.510Z,9.65
2019-03-08T12:34:12.609Z,7.35
2019-03-08T12:36:43.189Z,11.65
2019-03-08T12:39:24.051Z,3.25
2019-03-08T12:41:54.528Z,4.42
2019-03-08T12:44:43.061Z,6.78
2019-03-08T12:47:24.889Z,4.35
2019-03-08T12:49:57.890Z,4.15
2019-03-08T12:52:33.861Z,5.35
2019-03-08T12:55:19.048Z,5.50
2019-03-08T12:57:55.429Z,6.28
2019-03-08T13:00:28.619Z,6.78
2019-03-08T13:02:58.930Z,6.08
2019-03-08T13:05:32.152Z,5.25
2019-03-08T13:08:18.639Z,4.83
2019-03-08T13:10:47.398Z,6.65
2019-03-08T13:13:16.127Z,8.28
2019-03-08T13:15:44.881Z,7.70
2019-03-08T13:18:13.800Z,10.68
2019-03-08T13:20:42.740Z,7.92
2019-03-08T13:23:11.611Z,7.60
2019-03-08T13:25:40.321Z,10.60
2019-03-08T13:28:09.059Z,9.78
2019-03-08T13:30:37.690Z,8.48
2019-03-08T13:33:06.268Z,5.78
2019-03-08T13:35:35.198Z,8.33
2019-03-08T13:38:03.991Z,5.05
2019-03-08T13:40:32.686Z,6.42
2019-03-08T13:43:01.524Z,6.22
2019-03-08T13:45:31.606Z,10.75
2019-03-08T13:48:00.447Z,14.85
2019-03-08T13:50:29.881Z,6.53
2019-03-08T13:52:59.322Z,12.37
2019-03-08T13:55:28.327Z,6.95
2019-03-08T14:11:31.898Z,5.17
2019-03-08T14:14:00.751Z,3.75
2019-03-08T14:16:30.032Z,5.55
2019-03-08T14:18:59.083Z,7.83
2019-03-08T14:21:27.819Z,3.72
2019-03-08T14:23:56.695Z,19.98
2019-03-08T14:26:25.725Z,7.95
2019-03-08T14:28:54.613Z,9.75
2019-03-08T14:31:25.288Z,4.12
2019-03-08T14:33:54.337Z,5.80
2019-03-08T14:36:22.959Z,5.37
2019-03-08T14:38:51.574Z,9.38
2019-03-08T14:41:24.406Z,10.65
2019-03-08T14:44:09.762Z,4.92
2019-03-08T14:46:58.384Z,3.85
2019-03-08T14:49:27.210Z,4.50
2019-03-08T14:51:55.801Z,2.62
2019-03-08T14:54:24.796Z,5.37
2019-03-08T14:56:53.477Z,4.92
2019-03-08T14:59:22.164Z,9.20
2019-03-08T15:01:50.915Z,4.47
2019-03-08T15:04:19.650Z,4.83
2019-03-08T15:06:48.239Z,8.18
2019-03-08T15:09:17.146Z,4.20
2019-03-08T15:11:45.769Z,7.33
2019-03-08T15:14:14.392Z,15.13
2019-03-08T15:16:44.112Z,6.78
2019-03-08T15:19:12.695Z,7.80
2019-03-08T15:21:48.150Z,4.28
2019-03-08T15:24:16.069Z,8.55
2019-03-08T15:26:47.550Z,7.75
2019-03-08T15:29:16.481Z,11.63
2019-03-08T15:31:45.202Z,10.93
2019-03-08T15:34:14.669Z,11.35
2019-03-08T15:36:44.258Z,8.93
2019-03-08T15:39:13.286Z,9.23
2019-03-08T15:41:42.023Z,8.65
2019-03-08T15:44:11.782Z,6.45
2019-03-08T15:46:40.700Z,7.53
2019-03-08T15:49:09.412Z,7.25
2019-03-08T15:51:37.972Z,11.50
2019-03-08T15:54:06.913Z,19.62
2019-03-08T15:56:35.693Z,12.78
2019-03-08T15:59:04.544Z,13.70
2019-03-08T16:01:33.287Z,16.65
2019-03-08T16:04:01.918Z,11.75
2019-03-08T16:06:30.664Z,8.20
2019-03-08T16:08:59.345Z,8.05
2019-03-08T16:11:28.005Z,8.38
2019-03-08T16:13:56.748Z,7.67
2019-03-08T16:16:25.413Z,8.28
2019-03-08T16:18:54.182Z,9.23
2019-03-08T16:21:24.798Z,12.95
2019-03-08T16:23:53.082Z,10.98
2019-03-08T16:26:25.400Z,16.17
2019-03-08T16:28:52.449Z,11.70
2019-03-08T16:31:31.664Z,9.13
2019-03-08T16:34:02.022Z,10.75
2019-03-08T16:36:35.479Z,10.90
2019-03-08T16:39:07.193Z,12.88
2019-03-08T16:41:38.831Z,10.98
2019-03-08T16:44:17.467Z,13.50
2019-03-08T16:46:50.505Z,9.78
2019-03-08T16:49:26.686Z,12.15
2019-03-08T16:52:11.778Z,27.93
2019-03-08T16:54:58.614Z,16.60
2019-03-08T16:57:45.403Z,6.90
2019-03-08T17:00:18.769Z,12.60
2019-03-08T17:02:51.909Z,13.80
2019-03-08T17:05:38.350Z,13.03
2019-03-08T17:08:15.607Z,12.90
2019-03-08T17:10:54.728Z,14.47
2019-03-08T17:13:33.964Z,11.48
2019-03-08T17:16:20.439Z,11.45
2019-03-08T17:18:50.688Z,13.72
2019-03-08T17:21:21.113Z,15.45
2019-03-08T17:23:51.397Z,16.50
2019-03-08T17:26:30.857Z,10.98
2019-03-08T17:29:06.878Z,18.95
2019-03-08T17:31:46.030Z,17.57
2019-03-08T17:34:32.850Z,16.15
2019-03-08T17:37:11.965Z,14.53
2019-03-08T17:39:57.057Z,19.80
2019-03-08T17:42:42.323Z,15.98
2019-03-08T17:45:16.083Z,14.05
2019-03-08T17:47:46.519Z,23.52
2019-03-08T17:50:16.804Z,29.70
2019-03-08T17:52:59.402Z,18.48
2019-03-08T17:58:27.631Z,24.02
2019-03-08T18:01:13.124Z,26.50
2019-03-08T18:03:43.672Z,16.30
2019-03-08T18:06:19.934Z,17.62
2019-03-08T18:08:53.234Z,24.00
2019-03-08T18:11:41.719Z,19.85
2019-03-08T18:14:20.758Z,25.40
2019-03-08T18:16:53.952Z,18.60
2019-03-08T18:19:30.302Z,19.52
2019-03-08T18:22:06.971Z,68.80
2019-03-08T18:24:40.648Z,19.92
2019-03-08T18:27:10.863Z,27.70
2019-03-08T18:29:50.369Z,28.30
2019-03-08T18:32:29.352Z,22.90
2019-03-08T18:35:05.786Z,15.45
2019-03-08T18:37:48.137Z,25.17
2019-03-08T18:40:24.046Z,40.90
2019-03-08T18:42:54.258Z,24.20
2019-03-08T18:45:25.892Z,20.97
2019-03-08T18:48:06.335Z,63.30
2019-03-08T18:50:52.562Z,23.65
2019-03-08T18:53:25.500Z,24.20
2019-03-08T18:55:55.849Z,48.80
2019-03-08T18:58:28.932Z,36.60
2019-03-08T19:01:01.824Z,23.20
2019-03-08T19:03:41.225Z,22.73
2019-03-08T19:06:14.662Z,65.35
2019-03-08T19:08:45.034Z,30.12
2019-03-08T19:11:15.394Z,17.32
2019-03-08T19:13:48.753Z,19.12
2019-03-08T19:16:27.704Z,29.32
2019-03-08T19:18:57.989Z,18.87
2019-03-08T19:21:44.494Z,25.32
2019-03-08T19:24:14.930Z,24.52
2019-03-08T19:26:45.731Z,22.48
2019-03-08T19:29:31.574Z,25.97
2019-03-08T19:32:10.665Z,25.82
2019-03-08T19:34:47.832Z,21.82
2019-03-08T19:37:25.128Z,20.40
2019-03-08T19:39:55.650Z,22.75
2019-03-08T19:42:32.311Z,29.20
2019-03-08T19:45:02.653Z,26.30
2019-03-08T19:47:43.221Z,23.15
2019-03-08T19:50:28.578Z,32.73
2019-03-08T19:53:07.968Z,25.30
2019-03-08T19:55:38.296Z,23.00
2019-03-08T19:58:09.298Z,24.07
2019-03-08T20:00:51.924Z,24.63
2019-03-08T20:03:25.258Z,24.32
2019-03-08T20:05:59.403Z,22.17
2019-03-08T20:08:29.990Z,20.65
2019-03-08T20:11:06.353Z,23.00
2019-03-08T20:13:46.082Z,22.75
2019-03-08T20:16:22.543Z,22.55
2019-03-08T20:18:53.365Z,22.58
2019-03-08T20:21:38.700Z,20.12
2019-03-08T20:24:15.033Z,26.73
2019-03-08T20:26:48.946Z,29.80
2019-03-08T20:29:31.257Z,17.80
2019-03-08T20:32:04.801Z,27.35
2019-03-08T20:34:50.989Z,24.10
2019-03-08T20:37:24.204Z,25.95
2019-03-08T20:40:02.260Z,22.75
2019-03-08T20:42:34.919Z,23.52
2019-03-08T20:45:07.005Z,25.57
2019-03-08T20:47:37.290Z,23.75
2019-03-08T20:50:07.773Z,37.10
2019-03-08T20:52:37.021Z,24.65
2019-03-08T20:55:07.676Z,29.57
2019-03-08T20:57:36.572Z,27.55
2019-03-08T21:00:07.192Z,28.35
2019-03-08T21:02:36.481Z,29.02
2019-03-08T21:05:06.611Z,26.82
2019-03-08T21:07:36.500Z,21.60
2019-03-08T21:10:06.757Z,29.40
2019-03-08T21:12:35.612Z,23.95
2019-03-08T21:15:06.115Z,17.95
2019-03-08T21:17:35.163Z,28.83
2019-03-08T21:20:05.838Z,20.97
2019-03-08T21:22:34.734Z,19.45
2019-03-08T21:25:03.703Z,24.02
2019-03-08T21:27:45.444Z,24.85
2019-03-08T21:30:17.563Z,22.55
2019-03-08T21:32:46.894Z,23.27
2019-03-08T21:35:15.752Z,25.25
2019-03-08T21:37:45.151Z,25.80
2019-03-08T21:40:14.536Z,20.23
2019-03-08T21:42:43.453Z,29.40
2019-03-08T21:45:13.818Z,25.88
2019-03-08T21:47:45.157Z,23.25
2019-03-08T21:50:17.697Z,23.67
2019-03-08T21:52:46.786Z,24.65
2019-03-08T21:55:15.528Z,25.23
2019-03-08T21:57:44.894Z,21.10
2019-03-08T22:00:21.245Z,31.82
2019-03-08T22:02:50.598Z,32.03
2019-03-08T22:05:36.587Z,27.15
2019-03-08T22:08:05.311Z,26.07
2019-03-08T22:10:50.915Z,22.02
2019-03-08T22:13:19.674Z,24.63
2019-03-08T22:15:48.723Z,27.52
2019-03-08T22:18:17.519Z,28.50
2019-03-08T22:20:46.531Z,31.00
2019-03-08T22:23:16.602Z,22.85
2019-03-08T22:25:45.292Z,23.95
2019-03-08T22:28:14.312Z,32.15
2019-03-08T22:30:44.611Z,26.87
2019-03-08T22:33:13.398Z,25.20
2019-03-08T22:35:42.681Z,28.30
2019-03-08T22:38:11.481Z,24.87
2019-03-08T22:40:40.771Z,27.60
2019-03-08T22:43:09.681Z,20.48
2019-03-08T22:45:38.419Z,19.50
2019-03-08T22:48:08.512Z,28.40
2019-03-08T22:50:37.252Z,27.73
2019-03-08T22:53:06.238Z,33.45
2019-03-08T22:55:35.120Z,23.20
2019-03-08T22:58:03.931Z,26.52
2019-03-08T23:01:00.852Z,20.50
2019-03-08T23:03:31.448Z,25.60
2019-03-08T23:06:00.431Z,27.32
2019-03-08T23:08:29.632Z,26.20
2019-03-08T23:10:58.803Z,19.17
2019-03-08T23:13:28.075Z,24.63
2019-03-08T23:15:57.144Z,25.75
2019-03-08T23:18:25.938Z,23.25
2019-03-08T23:20:55.093Z,27.45
2019-03-08T23:23:24.052Z,24.30
2019-03-08T23:25:53.083Z,21.73
2019-03-08T23:28:26.553Z,19.67
2019-03-08T23:31:12.163Z,27.70
2019-03-08T23:33:40.932Z,23.73
2019-03-08T23:36:09.752Z,29.07
2019-03-08T23:38:38.810Z,21.10
2019-03-08T23:41:08.092Z,23.65
2019-03-08T23:43:37.252Z,23.30
2019-03-08T23:46:06.357Z,25.85
2019-03-08T23:48:36.092Z,24.10
2019-03-08T23:51:05.076Z,26.37
2019-03-08T23:53:34.209Z,22.60
2019-03-08T23:56:03.126Z,28.38
2019-03-08T23:58:31.983Z,29.63
